world map with ETNH marked

ETNH - Airport

This information may not be accurate or current and is not valid for navigation or flight planning. No warranty of fitness for any purpose is made or implied.

flag of Schleswig-Holsteinflag of Germany

Donate via PayPal

Additional information is available on the NEW Great Circle Mapper

Location
City:  Hohn, Schleswig-Holstein, Germany
ICAO:ETNH

Details
Type:Airport (Flugplatz, Airfield)
Use:Military
Latitude:54°18'44"N (54.312200)
Longitude:9°32'17"E (9.538150)
Elevation:39 ft (12 m)
Runways:1
Longest:8005 × 98 ft (2440 × 30 m)

Time
Timezone:UTC+1 (DST+4)
Local Time:

Weather
METAR:ETNH  041320Z 19013KT 9999 SCT040 OVC110 03/M02 Q1020 BLU BLU
TAF:ETNH  (expired)

Related Locations
Nearby:
Farthest:CHT: 11656 mi / 18759 km
Waitangi [Tuuta], CIT, NZ

Find:

   beyond  
but within

Other Information
Maps:
Sources:

  


 


Great Circle Mapper   Great Circle Mapper
Great Circle Mapper FAQ   Great Circle Mapper FAQ
  Karl's Home Page
KLSē   KLSē Home
   GC on Facebook
Airlines of the World   Airlines of the World
Donate via PayPal


Copyright © 2004-2019, Karl L. Swartz. All rights reserved.
All trademarks mentioned herein belong to their respective owners.

Please see credits for attribution and copyright information.

Karl Swartz <karl@kls2.com>
  Powered by FreeBSD
Valid HTML 4.01!
Labeled with ICRA
hCard Microformat
Geo Microformat